Stormwatcher's Retreat Logo




                  Temp     Hi    Low   Out    Dew  Wind  Wind   Wind    Hi    Hi   Wind   Heat    THW   THSW                Rain  Solar   Solar Hi Solar   UV    UV    Hi     Heat    Cool    In     In    In     In     In   In Air          Wind  Wind    ISS   Arc.
  Date    Time     Out   Temp   Temp   Hum    Pt. Speed   Dir    Run Speed   Dir  Chill  Index  Index  Index   Bar    Rain  Rate   Rad.  Energy    Rad.  Index  Dose   UV     D-D     D-D    Temp   Hum    Dew   Heat    EMC Density     ET   Samp   Tx   Recept  Int.
------------------------------------------------------------------------------------------------------------------------------------------------------------------------------------------------------------------------------------------------------------------------
 2/17/20 12:10a   46.9   47.1   46.7    46   27.2   9.0     N   1.50  14.0   NNE   42.2   45.6   40.9   37.2  30.417  0.01  0.00     0     0.00      0     0.0  0.00   0.0   0.126   0.000   69.0    47   47.9   67.3   8.77  .0755    0.000   210    5    100.0   10 
 2/17/20 12:20a   47.0   47.1   46.9    46   27.3   5.0    NE   0.83  10.0     N   44.7   45.7   43.4   39.4  30.418  0.00  0.00     0     0.00      0     0.0  0.00   0.0   0.125   0.000   68.9    47   47.8   67.2   8.77  .0755    0.000   210    5    100.0   10 
 2/17/20 12:30a   46.7   47.0   46.7    46   27.0   2.0   ENE   0.33   6.0    NE   46.7   45.4   45.4   41.3  30.419  0.00  0.00     0     0.00      0     0.0  0.00   0.0   0.127   0.000   68.8    47   47.7   67.1   8.77  .0755    0.000   212    5    100.0   10 
 2/17/20 12:40a   46.0   46.7   46.0    46   26.4   1.0    SE   0.17   5.0    NW   46.0   44.7   44.7   40.6  30.418  0.00  0.00     0     0.00      0     0.0  0.00   0.0   0.132   0.000   68.7    47   47.6   67.0   8.78  .0755    0.000   210    5    100.0   10 
 2/17/20 12:50a   46.0   46.1   45.9    47   26.9   3.0    SW   0.50  10.0   ENE   45.2   44.8   44.0   39.9  30.418  0.00  0.00     0     0.00      0     0.0  0.00   0.0   0.132   0.000   68.7    46   47.1   66.9   8.65  .0755    0.000   213    5    100.0   10 
 2/17/20  1:00a   46.0   46.0   46.0    47   26.9   2.0   ENE   0.33   8.0     E   46.0   44.8   44.8   40.7  30.415  0.00  0.00     0     0.00      0     0.0  0.00   0.0   0.132   0.000   68.6    46   47.0   66.8   8.65  .0756    0.002   214    5    100.0   10 
 2/17/20  1:10a   45.7   46.0   45.7    47   26.6   1.0    SE   0.17   3.0   ESE   45.7   44.5   44.5   40.4  30.417  0.00  0.00     0     0.00      0     0.0  0.00   0.0   0.134   0.000   68.5    46   46.9   66.8   8.65  .0756    0.000   213    5    100.0   10 
 2/17/20  1:20a   45.4   45.7   45.4    47   26.3   0.0    SE   0.00   2.0    SE   45.4   44.2   44.2   40.1  30.415  0.00  0.00     0     0.00      0     0.0  0.00   0.0   0.136   0.000   68.5    47   47.5   66.8   8.78  .0756    0.000   212    5    100.0   10 
 2/17/20  1:30a   45.2   45.4   45.2    47   26.1   0.0    SE   0.00   2.0    SE   45.2   44.0   44.0   39.9  30.417  0.00  0.00     0     0.00      0     0.0  0.00   0.0   0.137   0.000   68.4    46   46.8   66.7   8.65  .0756    0.000   212    5    100.0   10 
 2/17/20  1:40a   45.0   45.2   45.0    47   26.0   1.0    SE   0.17   3.0    SE   45.0   43.8   43.8   39.7  30.416  0.00  0.00     0     0.00      0     0.0  0.00   0.0   0.139   0.000   68.3    46   46.7   66.6   8.65  .0756    0.000   212    5    100.0   10 
 2/17/20  1:50a   44.9   45.0   44.9    47   25.9   1.0    SE   0.17   3.0    SE   44.9   43.7   43.7   39.6  30.417  0.00  0.00     0     0.00      0     0.0  0.00   0.0   0.140   0.000   68.2    46   46.6   66.5   8.65  .0756    0.000   212    5    100.0   10 
 2/17/20  2:00a   44.8   44.9   44.8    47   25.8   0.0    SE   0.00   2.0    SE   44.8   43.6   43.6   39.5  30.420  0.00  0.00     0     0.00      0     0.0  0.00   0.0   0.140   0.000   68.2    46   46.6   66.5   8.65  .0756    0.001   213    5    100.0   10 
 2/17/20  2:10a   44.6   44.8   44.6    48   26.1   0.0    SE   0.00   1.0    SE   44.6   43.4   43.4   39.3  30.419  0.00  0.00     0     0.00      0     0.0  0.00   0.0   0.142   0.000   68.1    46   46.5   66.4   8.65  .0756    0.000   210    5    100.0   10 
 2/17/20  2:20a   44.5   44.6   44.4    48   26.0   1.0    SE   0.17   2.0    SE   44.5   43.3   43.3   39.2  30.418  0.00  0.00     0     0.00      0     0.0  0.00   0.0   0.142   0.000   68.0    46   46.4   66.3   8.65  .0757    0.000   212    5    100.0   10 
 2/17/20  2:30a   44.6   44.6   44.5    48   26.1   0.0    SE   0.00   2.0    SE   44.6   43.4   43.4   39.3  30.418  0.00  0.00     0     0.00      0     0.0  0.00   0.0   0.142   0.000   68.0    46   46.4   66.3   8.65  .0757    0.000   212    5    100.0   10 
 2/17/20  2:40a   44.6   44.6   44.5    48   26.1   0.0    SE   0.00   1.0    SE   44.6   43.4   43.4   39.3  30.421  0.00  0.00     0     0.00      0     0.0  0.00   0.0   0.142   0.000   67.9    46   46.3   66.2   8.65  .0757    0.000   209    5    100.0   10 
 2/17/20  2:50a   44.6   44.6   44.5    48   26.1   0.0    SE   0.00   2.0    SE   44.6   43.4   43.4   39.3  30.420  0.00  0.00     0     0.00      0     0.0  0.00   0.0   0.142   0.000   67.8    46   46.3   66.1   8.65  .0757    0.000   209    5    100.0   10 
 2/17/20  3:00a   44.5   44.6   44.5    48   26.0   0.0    SE   0.00   1.0    SE   44.5   43.3   43.3   39.2  30.421  0.00  0.00     0     0.00      0     0.0  0.00   0.0   0.142   0.000   67.8    46   46.3   66.1   8.65  .0757    0.001   213    5    100.0   10 
 2/17/20  3:10a   44.4   44.5   44.4    48   25.9   0.0    SE   0.00   1.0    SE   44.4   43.2   43.2   39.1  30.421  0.00  0.00     0     0.00      0     0.0  0.00   0.0   0.143   0.000   67.7    46   46.2   66.0   8.65  .0757    0.000   212    5    100.0   10 
 2/17/20  3:20a   44.5   44.5   44.4    48   26.0   0.0    SE   0.00   2.0    SE   44.5   43.3   43.3   39.2  30.422  0.00  0.00     0     0.00      0     0.0  0.00   0.0   0.142   0.000   67.6    46   46.1   65.9   8.65  .0757    0.000   213    5    100.0   10 
 2/17/20  3:30a   44.9   44.9   44.5    48   26.4   3.0   ESE   0.50   8.0    NW   43.9   43.7   42.7   38.6  30.419  0.00  0.00     0     0.00      0     0.0  0.00   0.0   0.140   0.000   67.5    46   46.0   65.8   8.65  .0757    0.000   214    5    100.0   10 
 2/17/20  3:40a   45.0   45.0   44.9    48   26.5   1.0   ESE   0.17   3.0   ESE   45.0   43.8   43.8   39.7  30.420  0.00  0.00     0     0.00      0     0.0  0.00   0.0   0.139   0.000   67.5    46   46.0   65.8   8.65  .0758    0.000   211    5    100.0   10 
 2/17/20  3:50a   44.7   45.0   44.7    48   26.2   0.0   ESE   0.00   2.0   ESE   44.7   43.5   43.5   39.4  30.418  0.00  0.00     0     0.00      0     0.0  0.00   0.0   0.141   0.000   67.5    46   46.0   65.8   8.65  .0757    0.000   213    5    100.0   10 
 2/17/20  4:00a   44.6   44.7   44.6    48   26.1   0.0   ---   0.00   0.0   ---   44.6   43.4   43.4   39.3  30.418  0.00  0.00     0     0.00      0     0.0  0.00   0.0   0.142   0.000   67.4    46   45.9   65.6   8.65  .0758    0.001   211    5    100.0   10 
 2/17/20  4:10a   44.5   44.6   44.5    48   26.0   0.0   ---   0.00   0.0   ---   44.5   43.3   43.3   39.2  30.420  0.00  0.00     0     0.00      0     0.0  0.00   0.0   0.142   0.000   67.3    46   45.8   65.5   8.65  .0758    0.000   211    5    100.0   10 
 2/17/20  4:20a   44.2   44.5   44.2    48   25.7   0.0   ---   0.00   0.0   ---   44.2   43.0   43.0   38.9  30.421  0.00  0.00     0     0.00      0     0.0  0.00   0.0   0.144   0.000   67.2    46   45.7   65.4   8.65  .0758    0.000   212    5    100.0   10 
 2/17/20  4:30a   44.2   44.3   44.2    48   25.7   2.0     E   0.33   7.0     E   44.2   43.0   43.0   38.9  30.424  0.00  0.00     0     0.00      0     0.0  0.00   0.0   0.144   0.000   67.2    46   45.7   65.4   8.65  .0758    0.000   212    5    100.0   10 
 2/17/20  4:40a   44.2   44.3   44.2    48   25.7   2.0     E   0.33   5.0     S   44.2   43.0   43.0   38.9  30.421  0.00  0.00     0     0.00      0     0.0  0.00   0.0   0.144   0.000   67.1    46   45.6   65.3   8.65  .0758    0.000   213    5    100.0   10 
 2/17/20  4:50a   44.2   44.2   44.1    48   25.7   2.0     S   0.33   6.0   ESE   44.2   43.0   43.0   38.9  30.426  0.00  0.00     0     0.00      0     0.0  0.00   0.0   0.144   0.000   67.0    46   45.5   65.2   8.65  .0759    0.000   213    5    100.0   10 
 2/17/20  5:00a   44.3   44.3   44.2    48   25.8   2.0   ENE   0.33   4.0     E   44.3   43.1   43.1   39.0  30.431  0.00  0.00     0     0.00      0     0.0  0.00   0.0   0.144   0.000   67.0    46   45.5   65.2   8.65  .0759    0.002   212    5    100.0   10 
 2/17/20  5:10a   44.1   44.3   44.1    48   25.6   2.0   ESE   0.33   6.0   ESE   44.1   42.9   42.9   38.8  30.432  0.01  0.00     0     0.00      0     0.0  0.00   0.0   0.145   0.000   66.9    46   45.4   65.1   8.65  .0759    0.000   211    5    100.0   10 
 2/17/20  5:20a   44.0   44.1   43.9    48   25.5   4.0   ESE   0.67   7.0   SSE   41.9   42.8   40.7   36.6  30.431  0.00  0.00     0     0.00      0     0.0  0.00   0.0   0.146   0.000   66.8    46   45.3   65.0   8.65  .0759    0.000   210    5    100.0   10 
 2/17/20  5:30a   43.8   44.0   43.8    48   25.4   4.0   ESE   0.67   9.0   SSE   41.7   42.6   40.5   36.4  30.431  0.00  0.00     0     0.00      0     0.0  0.00   0.0   0.147   0.000   66.8    46   45.3   65.0   8.65  .0759    0.000   212    5    100.0   10 
 2/17/20  5:40a   43.7   43.8   43.7    48   25.3   4.0   ESE   0.67   8.0   ESE   41.6   42.5   40.4   36.3  30.429  0.00  0.00     0     0.00      0     0.0  0.00   0.0   0.148   0.000   66.7    46   45.3   64.8   8.65  .0759    0.000   211    5    100.0   10 
 2/17/20  5:50a   43.7   43.8   43.7    48   25.3   4.0   ESE   0.67   7.0     E   41.6   42.5   40.4   36.3  30.428  0.00  0.00     0     0.00      0     0.0  0.00   0.0   0.148   0.000   66.6    46   45.2   64.7   8.65  .0759    0.000   213    5    100.0   10 
 2/17/20  6:00a   43.8   43.8   43.7    48   25.4   3.0   ESE   0.50   6.0     E   42.7   42.6   41.5   37.4  30.427  0.00  0.00     0     0.00      0     0.0  0.00   0.0   0.147   0.000   66.6    47   45.7   64.8   8.82  .0759    0.002   214    5    100.0   10 
 2/17/20  6:10a   43.8   43.8   43.7    48   25.4   4.0   ESE   0.67   7.0   SSE   41.7   42.6   40.5   36.4  30.430  0.00  0.00     0     0.00      0     0.0  0.00   0.0   0.147   0.000   66.7    47   45.8   64.9   8.82  .0759    0.000   212    5    100.0   10 
 2/17/20  6:20a   43.8   43.8   43.8    48   25.4   2.0     E   0.33   6.0   ESE   43.8   42.6   42.6   38.5  30.437  0.00  0.00     0     0.00      0     0.0  0.00   0.0   0.147   0.000   66.9    47   46.0   65.2   8.81  .0759    0.000   212    5    100.0   10 
 2/17/20  6:30a   43.6   43.8   43.6    48   25.2   1.0     E   0.17   6.0     E   43.6   42.4   42.4   38.3  30.436  0.00  0.00     0     0.00      0     0.0  0.00   0.0   0.149   0.000   67.1    47   46.2   65.4   8.81  .0758    0.000   213    5    100.0   10 
 2/17/20  6:40a   43.2   43.6   43.2    48   24.8   4.0   ESE   0.67   8.0    SE   41.0   42.0   39.8   35.7  30.437  0.00  0.00     0     0.00      0     0.0  0.00   0.0   0.151   0.000   67.3    47   46.4   65.6   8.80  .0758    0.000   209    5    100.0   10 
 2/17/20  6:50a   42.9   43.2   42.9    48   24.5   4.0   ESE   0.67   9.0    SE   40.7   41.7   39.5   35.4  30.433  0.00  0.00     0     0.00      0     0.0  0.00   0.0   0.153   0.000   67.5    47   46.6   65.8   8.80  .0758    0.000   211    5    100.0   10 
 2/17/20  7:00a   42.6   42.9   42.6    48   24.3   5.0   ESE   0.83   9.0     E   39.5   41.4   38.3   34.2  30.433  0.00  0.00     0     0.00      0     0.0  0.00   0.0   0.156   0.000   67.9    48   47.5   66.4   8.89  .0757    0.001   210    5    100.0   10 
 2/17/20  7:10a   42.5   42.6   42.5    48   24.2   5.0   ESE   0.83   9.0   ESE   39.4   41.3   38.2   34.1  30.430  0.00  0.00     0     0.00      0     0.0  0.00   0.0   0.156   0.000   68.3    48   47.8   66.8   8.88  .0756    0.000   213    5    100.0   10 
 2/17/20  7:20a   42.5   42.5   42.4    48   24.2   4.0   ESE   0.67   7.0    SE   40.2   41.3   39.0   35.0  30.434  0.00  0.00     6     0.09     11     0.0  0.00   0.0   0.156   0.000   68.6    48   48.1   67.0   8.88  .0756    0.000   213    5    100.0   10 
 2/17/20  7:30a   42.8   42.8   42.5    48   24.4   3.0   ESE   0.50   6.0   ESE   41.6   41.6   40.4   36.6  30.435  0.00  0.00    16     0.23     26     0.0  0.00   0.0   0.154   0.000   68.9    48   48.4   67.3   8.87  .0755    0.000   211    5    100.0   10 
 2/17/20  7:40a   42.9   42.9   42.8    48   24.5   4.0   ESE   0.67   8.0     E   40.7   41.7   39.5   35.9  30.435  0.00  0.00    25     0.36     30     0.0  0.00   0.0   0.153   0.000   69.0    47   47.9   67.3   8.77  .0755    0.000   210    5    100.0   10 
 2/17/20  7:50a   42.8   42.9   42.8    48   24.4   4.0   ESE   0.67   7.0    SE   40.6   41.6   39.4   35.8  30.434  0.00  0.00    24     0.34     26     0.0  0.00   0.0   0.154   0.000   69.0    47   47.9   67.3   8.77  .0755    0.000   212    5    100.0   10 
 2/17/20  8:00a   42.6   42.8   42.6    48   24.3   3.0   ESE   0.50   6.0   ESE   41.3   41.4   40.1   36.6  30.432  0.00  0.00    28     0.40     30     0.0  0.00   0.0   0.156   0.000   69.1    47   48.0   67.4   8.77  .0755    0.002   212    5    100.0   10 
 2/17/20  8:10a   42.7   42.7   42.6    48   24.4   4.0   ESE   0.67   9.0   ESE   40.4   41.5   39.2   35.8  30.434  0.00  0.00    33     0.47     35     0.0  0.00   0.0   0.155   0.000   69.1    47   48.0   67.4   8.77  .0755    0.000   210    5    100.0   10 
 2/17/20  8:20a   42.9   42.9   42.7    48   24.5   4.0   ESE   0.67   7.0   SSE   40.7   41.7   39.5   36.2  30.439  0.00  0.00    37     0.53     39     0.0  0.00   0.0   0.153   0.000   69.1    47   48.0   67.4   8.77  .0755    0.000   212    5    100.0   10 
 2/17/20  8:30a   43.1   43.1   42.9    48   24.7   4.0   ESE   0.67   7.0     E   40.9   41.9   39.7   41.1  30.443  0.00  0.00   122     1.75    148     4.4  0.31   4.9   0.152   0.000   69.1    47   48.0   67.4   8.77  .0755    0.000   213    5    100.0   10 
 2/17/20  8:40a   43.2   43.2   43.1    48   24.8   4.0   ESE   0.67   8.0   ESE   41.0   42.0   39.8   42.9  30.442  0.00  0.00   164     2.35    174     4.9  0.35   4.9   0.151   0.000   69.2    47   48.1   67.4   8.77  .0755    0.000   211    5    100.0   10 
 2/17/20  8:50a   43.2   43.3   43.2    48   24.8   5.0   ESE   0.83  10.0   SSE   40.2   42.0   39.0   43.0  30.444  0.00  0.00   190     2.72    202     4.9  0.35   4.9   0.151   0.000   69.2    47   48.1   67.4   8.77  .0755    0.000   213    5    100.0   10 
 2/17/20  9:00a   43.3   43.3   43.2    48   24.9   5.0   ESE   0.83  10.0    SE   40.4   42.1   39.2   44.1  30.443  0.00  0.00   217     3.11    229     4.9  0.35   4.9   0.151   0.000   69.3    46   47.6   67.4   8.65  .0755    0.004   213    5    100.0   10 
 2/17/20  9:10a   43.9   43.9   43.3    48   25.5   4.0   ESE   0.67   9.0    SE   41.8   42.7   40.6   46.4  30.446  0.00  0.00   243     3.48    253     4.9  0.35   4.9   0.147   0.000   69.4    46   47.7   67.5   8.65  .0755    0.000   209    5    100.0   10 
 2/17/20  9:20a   44.9   44.9   43.9    48   26.4   4.0   ESE   0.67   7.0   ESE   43.0   43.7   41.8   48.4  30.450  0.00  0.00   269     3.86    281     4.9  0.35   4.9   0.140   0.000   69.5    46   47.8   67.6   8.65  .0755    0.000   211    5    100.0   10 
 2/17/20  9:30a   45.6   45.6   44.9    47   26.5   3.0   ESE   0.50   7.0   ESE   44.7   44.4   43.5   51.0  30.451  0.00  0.00   300     4.30    318     4.9  0.35   4.9   0.135   0.000   69.6    46   47.9   67.6   8.65  .0755    0.000   211    5    100.0   10 
 2/17/20  9:40a   46.7   46.7   45.6    47   27.5   1.0   ESE   0.17   3.0   ESE   46.7   45.5   45.5   54.0  30.452  0.00  0.00   332     4.76    343     4.9  0.35   4.9   0.127   0.000   69.8    46   48.1   67.8   8.65  .0754    0.000   211    5    100.0   10 
 2/17/20  9:50a   47.5   47.5   46.7    46   27.7   2.0   ESE   0.33   4.0     E   47.5   46.2   46.2   55.1  30.450  0.00  0.00   354     5.07    364     4.8  0.34   4.8   0.122   0.000   69.9    46   48.2   67.8   8.65  .0754    0.000   209    5    100.0   10 
 2/17/20 10:00a   48.4   48.4   47.5    45   28.0   2.0     E   0.33   4.0   ESE   48.4   47.1   47.1   56.5  30.447  0.00  0.00   379     5.43    390     4.8  0.34   4.8   0.115   0.000   70.0    46   48.3   67.9   8.65  .0754    0.006   213    5    100.0   10 
 2/17/20 10:10a   48.8   48.8   48.4    44   27.8   2.0   ENE   0.33   4.0   ENE   48.8   47.5   47.5   57.3  30.448  0.00  0.00   401     5.75    410     4.8  0.34   4.8   0.113   0.000   70.1    46   48.4   68.0   8.65  .0754    0.000   211    5    100.0   10 
 2/17/20 10:20a   49.2   49.2   48.8    43   27.6   2.0     E   0.33   4.0   ENE   49.2   47.8   47.8   58.0  30.445  0.00  0.00   423     6.06    434     4.8  0.34   4.8   0.110   0.000   70.1    46   48.4   68.0   8.65  .0754    0.000   211    5    100.0   10 
 2/17/20 10:30a   50.1   50.1   49.3    42   27.9   1.0     E   0.17   4.0     E   50.1   48.7   48.7   59.3  30.444  0.00  0.00   445     6.38    455     4.8  0.34   4.8   0.103   0.000   70.1    46   48.4   68.0   8.65  .0754    0.000   212    5    100.0   10 
 2/17/20 10:40a   50.4   50.6   50.1    40   27.0   2.0   ESE   0.33   6.0   ESE   50.4   48.8   48.8   59.7  30.445  0.00  0.00   467     6.69    478     4.8  0.34   4.8   0.101   0.000   70.1    46   48.4   68.0   8.65  .0754    0.000   213    5    100.0   10 
 2/17/20 10:50a   50.3   50.3   50.2    40   26.9   3.0     E   0.50   7.0     E   50.0   48.7   48.4   60.4  30.447  0.00  0.00   509     7.30    547     4.8  0.34   4.8   0.102   0.000   70.2    46   48.4   68.2   8.65  .0754    0.000   214    5    100.0   10 
 2/17/20 11:00a   49.9   50.3   49.9    40   26.5   2.0   WNW   0.33   4.0     E   49.9   48.4   48.4   63.8  30.446  0.00  0.00   625     8.96    661     4.8  0.34   4.8   0.105   0.000   70.3    46   48.5   68.3   8.64  .0753    0.009   212    5    100.0   10 
 2/17/20 11:10a   50.1   50.2   49.8    40   26.7   3.0    NE   0.50   9.0   NNE   49.8   48.6   48.3   62.5  30.441  0.00  0.00   596     8.54    654     4.8  0.34   4.8   0.103   0.000   70.4    46   48.6   68.4   8.64  .0753    0.000   213    5    100.0   10 
 2/17/20 11:20a   51.1   51.1   50.1    40   27.6   2.0   ESE   0.33   5.0     E   51.1   49.4   49.4   61.7  30.440  0.00  0.00   539     7.73    557     4.8  0.34   4.8   0.097   0.000   70.4    46   48.6   68.4   8.64  .0753    0.000   213    5    100.0   10 
 2/17/20 11:30a   51.2   51.4   51.1    38   26.4   2.0    SE   0.33   6.0     S   51.2   49.4   49.4   61.6  30.442  0.00  0.00   542     7.77    547     4.8  0.34   4.8   0.096   0.000   70.5    46   48.7   68.6   8.64  .0753    0.000   212    5    100.0   10 
 2/17/20 11:40a   51.6   51.6   51.1    37   26.1   2.0     E   0.33   8.0   ENE   51.6   49.7   49.7   62.2  30.441  0.00  0.00   555     7.96    559     4.8  0.34   4.8   0.093   0.000   70.5    46   48.7   68.6   8.64  .0753    0.000   213    5    100.0   10 
 2/17/20 11:50a   52.0   52.0   51.7    38   27.1   2.0   ENE   0.33   8.0   NNE   52.0   50.0   50.0   63.7  30.440  0.00  0.00   596     8.54    654     4.8  0.34   4.8   0.090   0.000   70.5    46   48.7   68.6   8.64  .0753    0.000   212    5    100.0   10 
 2/17/20 12:00p   52.9   52.9   52.0    36   26.6   3.0   ENE   0.50   8.0   NNE   52.9   50.7   50.7   66.2  30.436  0.00  0.00   656     9.40    693     4.8  0.34   4.8   0.084   0.000   70.6    46   48.8   68.7   8.64  .0753    0.012   208    5    100.0   10 
 2/17/20 12:10p   51.3   52.9   51.3    36   25.2   5.0    NE   0.83  11.0    NE   49.8   49.4   47.9   56.0  30.430  0.00  0.00   409     5.86    675     4.8  0.34   4.8   0.095   0.000   70.6    46   48.8   68.7   8.64  .0752    0.000   212    5    100.0   10 
 2/17/20 12:20p   50.0   51.3   50.0    37   24.7   7.0     N   1.17  11.0    NE   47.2   48.4   45.6   57.5  30.430  0.00  0.00   546     7.83    673     4.9  0.35   4.9   0.104   0.000   70.6    46   48.8   68.7   8.64  .0752    0.000   213    5    100.0   10 
 2/17/20 12:30p   50.3   50.3   50.0    39   26.3   7.0     N   1.17  11.0     N   47.6   48.7   46.0   62.5  30.427  0.00  0.00   696     9.98    710     4.9  0.35   4.9   0.102   0.000   70.7    46   48.9   68.8   8.64  .0752    0.000   212    5    100.0   10 
 2/17/20 12:40p   50.4   50.4   50.0    37   25.1   8.0     N   1.33  13.0     N   47.0   48.7   45.3   61.7  30.425  0.00  0.00   712    10.21    735     4.9  0.35   4.9   0.101   0.000   70.7    46   48.9   68.8   8.64  .0752    0.000   212    5    100.0   10 
 2/17/20 12:50p   50.1   50.4   50.1    36   24.2   8.0     N   1.33  11.0     N   46.6   48.4   44.9   60.9  30.423  0.00  0.00   692     9.92    708     4.9  0.35   4.9   0.103   0.000   70.7    46   48.9   68.8   8.64  .0752    0.000   213    5    100.0   10 
 2/17/20  1:00p   49.7   50.3   49.7    36   23.8   8.0     N   1.33  10.0    NE   46.1   48.0   44.4   54.5  30.422  0.00  0.00   482     6.91    686     4.9  0.35   4.9   0.106   0.000   70.8    46   49.0   68.9   8.63  .0752    0.014   213    5    100.0   10 
 2/17/20  1:10p   50.1   50.1   49.7    37   24.8   9.0     N   1.50  13.0   NNE   46.0   48.5   44.4   57.8  30.421  0.00  0.00   602     8.63    624     4.9  0.35   4.9   0.103   0.000   70.8    46   49.0   68.9   8.63  .0752    0.000   211    5    100.0   10 
 2/17/20  1:20p   50.4   50.5   50.1    37   25.1  10.0     N   1.67  13.0     N   45.8   48.7   44.1   57.2  30.417  0.00  0.00   599     8.59    605     4.9  0.35   4.9   0.101   0.000   70.8    46   49.0   68.9   8.63  .0752    0.000   214    5    100.0   10 
 2/17/20  1:30p   50.7   50.7   50.3    38   26.0   9.0     N   1.50  14.0     N   46.7   49.0   45.0   58.8  30.415  0.00  0.00   593     8.50    601     4.9  0.35   4.9   0.099   0.000   70.9    46   49.1   69.1   8.63  .0752    0.000   209    5    100.0   10 
 2/17/20  1:40p   50.0   50.9   50.0    39   26.0  10.0     N   1.67  15.0   NNW   45.3   48.5   43.8   57.1  30.416  0.00  0.00   581     8.33    591     4.9  0.35   4.9   0.104   0.000   70.9    47   49.7   69.2   8.75  .0751    0.000   212    5    100.0   10 
 2/17/20  1:50p   50.4   50.4   49.8    40   27.0  10.0     N   1.67  15.0   NNE   45.8   48.8   44.2   57.8  30.412  0.00  0.00   575     8.24    582     4.9  0.35   4.9   0.101   0.000   71.0    47   49.7   69.3   8.75  .0751    0.000   212    5    100.0   10 
 2/17/20  2:00p   50.9   50.9   50.5    40   27.4   9.0     N   1.50  15.0   NNE   47.0   49.2   45.3   60.5  30.413  0.00  0.00   596     8.54    619     4.9  0.35   4.9   0.098   0.000   71.1    47   49.8   69.4   8.75  .0751    0.015   212    5    100.0   10 
 2/17/20  2:10p   51.4   51.5   50.9    39   27.2  11.0    NE   1.83  17.0    NE   46.4   49.6   44.6   50.7  30.413  0.00  0.00   313     4.49    534     4.9  0.35   4.9   0.094   0.000   71.3    47   50.0   69.8   8.75  .0751    0.000   212    5    100.0   10 
 2/17/20  2:20p   51.6   51.6   51.4    38   26.8  12.0    NE   2.00  18.0    NE   46.1   49.7   44.2   56.3  30.409  0.00  0.00   507     7.27    519     4.9  0.35   5.0   0.093   0.000   71.4    47   50.1   69.9   8.75  .0750    0.000   214    5    100.0   10 
 2/17/20  2:30p   51.7   51.7   51.4    37   26.2  11.0    NE   1.83  18.0    NE   46.7   49.7   44.7   57.0  30.410  0.00  0.00   489     7.01    497     5.0  0.36   5.0   0.092   0.000   71.5    47   50.2   70.0   8.75  .0750    0.000   211    5    100.0   10 
 2/17/20  2:40p   52.0   52.0   51.7    37   26.5  10.0    NE   1.67  17.0    NE   47.6   50.0   45.6   58.2  30.409  0.00  0.00   470     6.74    478     5.0  0.36   5.0   0.090   0.000   71.6    47   50.3   70.2   8.75  .0750    0.000   213    5    100.0   10 
 2/17/20  2:50p   51.9   52.1   51.9    35   25.1  10.0    NE   1.67  17.0    NE   47.5   49.8   45.4   57.7  30.410  0.00  0.00   451     6.47    461     5.0  0.36   5.0   0.091   0.000   71.6    47   50.3   70.2   8.75  .0750    0.000   213    5    100.0   10 
 2/17/20  3:00p   51.7   52.0   51.5    35   24.9  10.0    NE   1.67  16.0    NE   47.3   49.7   45.3   57.3  30.410  0.00  0.00   430     6.16    441     5.0  0.36   5.0   0.092   0.000   71.8    47   50.5   70.5   8.75  .0750    0.013   212    5    100.0   10 
 2/17/20  3:10p   52.0   52.0   51.7    35   25.2   9.0    NE   1.50  16.0   NNE   48.2   49.9   46.1   58.2  30.410  0.00  0.00   410     5.88    418     5.0  0.36   5.0   0.090   0.000   71.9    47   50.6   70.6   8.75  .0750    0.000   213    5    100.0   10 
 2/17/20  3:20p   52.2   52.2   51.8    34   24.6   9.0    NE   1.50  17.0    NE   48.4   50.0   46.2   58.0  30.408  0.00  0.00   389     5.58    401     5.0  0.36   5.0   0.089   0.000   72.0    47   50.7   70.8   8.75  .0749    0.000   214    5    100.0   10 
 2/17/20  3:30p   51.8   52.2   51.7    34   24.3  10.0    NE   1.67  18.0    NE   47.4   49.7   45.3   56.3  30.408  0.00  0.00   367     5.26    374     5.0  0.36   5.0   0.092   0.000   72.1    47   50.8   70.9   8.75  .0749    0.000   213    5    100.0   10 
 2/17/20  3:40p   51.6   51.8   51.5    33   23.4  11.0    NE   1.83  18.0   NNE   46.6   49.5   44.5   47.3  30.409  0.00  0.00   346     4.96    355     5.0  0.36   5.0   0.093   0.000   72.2    47   50.8   71.1   8.75  .0749    0.000   213    5    100.0   10 
 2/17/20  3:50p   51.6   51.6   51.4    33   23.4  10.0    NE   1.67  17.0   NNE   47.2   49.5   45.1   47.9  30.406  0.00  0.00   345     4.95    367     5.0  0.36   5.0   0.093   0.000   72.3    47   50.9   71.2   8.75  .0749    0.000   211    5    100.0   10 
 2/17/20  4:00p   52.1   52.2   51.5    36   25.9   9.0    NE   1.50  19.0    NE   48.3   50.0   46.2   50.2  30.407  0.00  0.00   396     5.68    420     5.0  0.36   5.0   0.090   0.000   72.3    47   50.9   71.2   8.75  .0749    0.011   211    5    100.0   10 
 2/17/20  4:10p   51.4   52.1   51.4    36   25.3   9.0    NE   1.50  16.0   NNE   47.5   49.5   45.6   47.3  30.403  0.00  0.00   281     4.03    330     5.1  0.36   5.1   0.094   0.000   72.3    47   50.9   71.2   8.75  .0749    0.000   211    5    100.0   10 
 2/17/20  4:20p   51.3   51.4   51.3    36   25.2  10.0   NNE   1.67  18.0    NE   46.8   49.4   44.9   45.3  30.403  0.00  0.00   211     3.02    250     5.1  0.36   5.1   0.095   0.000   72.5    48   51.7   71.6   8.90  .0748    0.000   212    5    100.0   10 
 2/17/20  4:30p   51.1   51.3   51.0    36   25.0  10.0    NE   1.67  17.0    NE   46.6   49.2   44.7   44.8  30.399  0.00  0.00   194     2.78    207     5.1  0.36   5.1   0.097   0.000   72.7    49   52.4   72.0   9.05  .0747    0.000   212    5    100.0   10 
 2/17/20  4:40p   50.8   51.2   50.8    35   24.1  10.0    NE   1.67  18.0   NNE   46.3   48.9   44.4   43.9  30.397  0.00  0.00   165     2.37    178     5.1  0.36   5.1   0.099   0.000   72.8    50   53.1   72.2   9.25  .0747    0.000   212    5    100.0   10 
 2/17/20  4:50p   50.5   50.8   50.5    35   23.8  11.0    NE   1.83  19.0   NNE   45.3   48.7   43.5   42.4  30.397  0.00  0.00   132     1.89    146     5.1  0.36   5.1   0.101   0.000   73.0    49   52.7   72.4   9.05  .0747    0.000   213    5    100.0   10 
 2/17/20  5:00p   50.2   50.5   50.2    35   23.6  10.0    NE   1.67  17.0    NE   45.5   48.5   43.8   42.0  30.396  0.00  0.00   100     1.43    116     5.1  0.36   5.1   0.103   0.000   72.9    48   52.1   72.2   8.91  .0747    0.008   210    5    100.0   10 
 2/17/20  5:10p   50.1   50.2   50.0    36   24.2  10.0    NE   1.67  16.0    NE   45.4   48.4   43.7   41.4  30.396  0.00  0.00    70     1.00     83     5.1  0.36   5.1   0.103   0.000   72.8    47   51.4   72.0   8.75  .0748    0.000   209    5    100.0   10 
 2/17/20  5:20p   49.4   50.0   49.4    36   23.5  11.0   ENE   1.83  17.0   NNE   44.1   47.7   42.4   39.7  30.395  0.00  0.00    46     0.66     56     0.5  0.04   5.1   0.108   0.000   72.6    47   51.2   71.7   8.75  .0748    0.000   213    5    100.0   10 
 2/17/20  5:30p   49.0   49.4   49.0    38   24.5   9.0   ENE   1.50  16.0   NNE   44.7   47.4   43.1   39.9  30.395  0.00  0.00    28     0.40     35     0.0  0.00   0.0   0.111   0.000   72.5    47   51.1   71.5   8.75  .0748    0.000   211    5    100.0   10 
 2/17/20  5:40p   48.2   49.0   48.2    38   23.7   7.0   ENE   1.17  15.0    NE   45.0   46.6   43.4   39.7  30.392  0.00  0.00    15     0.22     19     0.0  0.00   0.0   0.117   0.000   72.3    47   50.9   71.2   8.75  .0748    0.000   211    5    100.0   10 
 2/17/20  5:50p   47.3   48.2   47.3    39   23.6   5.0   ENE   0.83  10.0     E   45.1   45.8   43.6   39.6  30.394  0.00  0.00     7     0.10     11     0.0  0.00   0.0   0.123   0.000   72.1    47   50.8   70.9   8.75  .0749    0.000   212    5    100.0   10 
 2/17/20  6:00p   46.7   47.3   46.7    40   23.6   5.0   ENE   0.83  12.0   ENE   44.3   45.2   42.8   38.6  30.394  0.00  0.00     0     0.00      0     0.0  0.00   0.0   0.127   0.000   71.9    46   50.0   70.6   8.61  .0749    0.004   210    5    100.0   10 
 2/17/20  6:10p   46.3   46.7   46.3    40   23.3   4.0   ENE   0.67   9.0   ENE   44.6   44.8   43.1   38.9  30.395  0.00  0.00     0     0.00      0     0.0  0.00   0.0   0.130   0.000   71.8    46   49.9   70.4   8.61  .0750    0.000   212    5    100.0   10 
 2/17/20  6:20p   46.0   46.3   46.0    41   23.6   4.0   ENE   0.67   8.0   ENE   44.2   44.5   42.7   38.5  30.393  0.00  0.00     0     0.00      0     0.0  0.00   0.0   0.132   0.000   71.7    46   49.8   70.2   8.62  .0750    0.000   213    5    100.0   10 
 2/17/20  6:30p   45.6   46.0   45.6    41   23.2   3.0   ENE   0.50   5.0     E   44.7   44.2   43.3   39.1  30.396  0.00  0.00     0     0.00      0     0.0  0.00   0.0   0.135   0.000   71.6    46   49.7   70.1   8.62  .0750    0.000   211    5    100.0   10 
 2/17/20  6:40p   45.1   45.6   45.1    42   23.3   3.0   ENE   0.50   5.0    NE   44.1   43.7   42.7   38.5  30.397  0.00  0.00     0     0.00      0     0.0  0.00   0.0   0.138   0.000   71.6    46   49.7   70.1   8.62  .0750    0.000   212    5    100.0   10 
 2/17/20  6:50p   44.7   45.1   44.7    42   23.0   2.0   ENE   0.33   4.0   ENE   44.7   43.3   43.3   39.1  30.397  0.00  0.00     0     0.00      0     0.0  0.00   0.0   0.141   0.000   71.6    46   49.7   70.1   8.62  .0750    0.000   211    5    100.0   10 
 2/17/20  7:00p   44.3   44.7   44.3    42   22.6   1.0   ENE   0.17   3.0   ENE   44.3   42.9   42.9   38.7  30.396  0.00  0.00     0     0.00      0     0.0  0.00   0.0   0.144   0.000   71.6    47   50.3   70.2   8.75  .0750    0.001   212    5    100.0   10 
 2/17/20  7:10p   44.0   44.3   44.0    42   22.4   1.0   ENE   0.17   2.0   ENE   44.0   42.6   42.6   38.4  30.396  0.00  0.00     0     0.00      0     0.0  0.00   0.0   0.146   0.000   71.6    47   50.3   70.2   8.75  .0750    0.000   213    5    100.0   10 
 2/17/20  7:20p   43.7   44.0   43.7    43   22.6   2.0   ENE   0.33   5.0   ENE   43.7   42.4   42.4   38.2  30.392  0.00  0.00     0     0.00      0     0.0  0.00   0.0   0.148   0.000   71.5    47   50.2   70.0   8.75  .0750    0.000   213    5    100.0   10 
 2/17/20  7:30p   44.0   44.0   43.7    43   22.9   3.0     E   0.50   8.0     E   42.9   42.7   41.6   37.4  30.389  0.00  0.00     0     0.00      0     0.0  0.00   0.0   0.146   0.000   71.4    47   50.1   69.9   8.75  .0750    0.000   213    5    100.0   10 
 2/17/20  7:40p   43.8   44.1   43.8    43   22.7   2.0     E   0.33   6.0     E   43.8   42.5   42.5   38.3  30.387  0.00  0.00     0     0.00      0     0.0  0.00   0.0   0.147   0.000   71.3    47   50.0   69.8   8.75  .0750    0.000   209    5    100.0   10 
 2/17/20  7:50p   43.7   43.8   43.7    43   22.6   2.0   ESE   0.33   8.0     E   43.7   42.4   42.4   38.2  30.385  0.00  0.00     0     0.00      0     0.0  0.00   0.0   0.148   0.000   71.3    47   50.0   69.8   8.75  .0750    0.000   212    5    100.0   10 
 2/17/20  8:00p   43.4   43.7   43.4    44   22.9   2.0   ESE   0.33   4.0   ESE   43.4   42.1   42.1   37.9  30.388  0.00  0.00     0     0.00      0     0.0  0.00   0.0   0.150   0.000   71.2    47   49.9   69.6   8.75  .0750    0.002   212    5    100.0   10 
 2/17/20  8:10p   43.3   43.4   43.3    44   22.8   2.0   ESE   0.33   6.0   SSE   43.3   42.0   42.0   37.8  30.388  0.00  0.00     0     0.00      0     0.0  0.00   0.0   0.151   0.000   71.1    47   49.8   69.4   8.75  .0750    0.000   213    5    100.0   10 
 2/17/20  8:20p   43.4   43.4   43.3    45   23.4   1.0    SE   0.17   5.0   SSE   43.4   42.1   42.1   37.9  30.388  0.00  0.00     0     0.00      0     0.0  0.00   0.0   0.150   0.000   71.0    46   49.2   69.2   8.63  .0751    0.000   213    5    100.0   10 
 2/17/20  8:30p   43.1   43.4   43.1    45   23.2   1.0    SE   0.17   2.0    SE   43.1   41.8   41.8   37.6  30.388  0.00  0.00     0     0.00      0     0.0  0.00   0.0   0.152   0.000   70.9    46   49.1   69.1   8.63  .0751    0.000   210    5    100.0   10 
 2/17/20  8:40p   42.7   43.1   42.7    45   22.8   0.0    SE   0.00   1.0    SE   42.7   41.4   41.4   37.2  30.388  0.00  0.00     0     0.00      0     0.0  0.00   0.0   0.155   0.000   70.8    46   49.0   68.9   8.63  .0751    0.000   211    5    100.0   10 
 2/17/20  8:50p   42.2   42.7   42.2    46   22.9   1.0    SE   0.17   2.0    SE   42.2   41.0   41.0   36.8  30.390  0.00  0.00     0     0.00      0     0.0  0.00   0.0   0.158   0.000   70.7    46   48.9   68.8   8.64  .0751    0.000   211    5    100.0   10 
 2/17/20  9:00p   41.9   42.1   41.9    46   22.6   1.0    SE   0.17   2.0    SE   41.9   40.7   40.7   36.5  30.392  0.00  0.00     0     0.00      0     0.0  0.00   0.0   0.160   0.000   70.6    46   48.8   68.7   8.64  .0752    0.002   211    5    100.0   10 
 2/17/20  9:10p   41.5   41.9   41.5    47   22.7   1.0    SE   0.17   2.0    SE   41.5   40.3   40.3   36.1  30.389  0.00  0.00     0     0.00      0     0.0  0.00   0.0   0.163   0.000   70.4    46   48.6   68.4   8.64  .0752    0.000   212    5    100.0   10 
 2/17/20  9:20p   41.6   41.6   41.4    47   22.8   0.0    SE   0.00   1.0    SE   41.6   40.4   40.4   36.2  30.390  0.00  0.00     0     0.00      0     0.0  0.00   0.0   0.163   0.000   70.4    46   48.6   68.4   8.64  .0752    0.000   212    5    100.0   10 
 2/17/20  9:30p   41.4   41.7   41.4    47   22.7   1.0    SE   0.17   3.0   ESE   41.4   40.2   40.2   36.0  30.390  0.00  0.00     0     0.00      0     0.0  0.00   0.0   0.164   0.000   70.3    46   48.5   68.3   8.64  .0752    0.000   212    5    100.0   10 
 2/17/20  9:40p   41.3   41.5   41.2    48   23.1   2.0   ESE   0.33   6.0   ESE   41.2   40.2   40.1   35.9  30.389  0.00  0.00     0     0.00      0     0.0  0.00   0.0   0.165   0.000   70.1    46   48.4   68.0   8.65  .0752    0.000   212    5    100.0   10 
 2/17/20  9:50p   41.7   41.7   41.3    48   23.4   2.0   ESE   0.33   6.0   ESE   41.7   40.6   40.6   36.4  30.388  0.00  0.00     0     0.00      0     0.0  0.00   0.0   0.162   0.000   70.1    46   48.4   68.0   8.65  .0752    0.000   211    5    100.0   10 
 2/17/20 10:00p   41.5   41.7   41.4    48   23.2   2.0     E   0.33   5.0   ESE   41.5   40.4   40.4   36.2  30.386  0.00  0.00     0     0.00      0     0.0  0.00   0.0   0.163   0.000   70.0    46   48.3   67.9   8.65  .0752    0.002   211    5    100.0   10 
 2/17/20 10:10p   41.5   41.6   41.5    48   23.2   2.0   ESE   0.33   6.0   ESE   41.5   40.4   40.4   36.2  30.388  0.00  0.00     0     0.00      0     0.0  0.00   0.0   0.163   0.000   69.9    46   48.2   67.8   8.65  .0753    0.000   212    5    100.0   10 
 2/17/20 10:20p   40.9   41.5   40.9    48   22.7   1.0   ESE   0.17   2.0   ESE   40.9   39.8   39.8   35.6  30.387  0.00  0.00     0     0.00      0     0.0  0.00   0.0   0.167   0.000   69.8    46   48.1   67.8   8.65  .0753    0.000   212    5    100.0   10 
 2/17/20 10:30p   40.4   40.9   40.4    47   21.7   1.0   ESE   0.17   3.0   ESE   40.4   39.2   39.2   35.0  30.386  0.00  0.00     0     0.00      0     0.0  0.00   0.0   0.171   0.000   69.7    46   48.0   67.7   8.65  .0753    0.000   212    5    100.0   10 
 2/17/20 10:40p   40.3   40.5   40.3    48   22.1   1.0   ESE   0.17   2.0   ESE   40.3   39.2   39.2   35.0  30.383  0.00  0.00     0     0.00      0     0.0  0.00   0.0   0.172   0.000   69.6    46   47.9   67.6   8.65  .0753    0.000   212    5    100.0   10 
 2/17/20 10:50p   39.7   40.3   39.7    48   21.6   1.0   ESE   0.17   2.0   ESE   39.7   38.6   38.6   34.4  30.378  0.00  0.00     0     0.00      0     0.0  0.00   0.0   0.176   0.000   69.5    46   47.8   67.6   8.65  .0753    0.000   210    5    100.0   10 
 2/17/20 11:00p   39.4   39.7   39.4    48   21.3   1.0   ESE   0.17   3.0    SE   39.4   38.3   38.3   34.1  30.376  0.00  0.00     0     0.00      0     0.0  0.00   0.0   0.178   0.000   69.4    46   47.7   67.5   8.65  .0753    0.001   212    5    100.0   10 
 2/17/20 11:10p   39.2   39.4   39.2    48   21.1   1.0    SE   0.17   6.0     E   39.2   38.1   38.1   33.9  30.375  0.00  0.00     0     0.00      0     0.0  0.00   0.0   0.179   0.000   69.3    46   47.6   67.4   8.65  .0753    0.000   213    5    100.0   10 
 2/17/20 11:20p   39.6   39.6   39.1    49   22.0   4.0     E   0.67  10.0     E   36.9   38.5   35.8   31.6  30.373  0.00  0.00     0     0.00      0     0.0  0.00   0.0   0.176   0.000   69.2    46   47.5   67.3   8.65  .0753    0.000   212    5    100.0   10 
 2/17/20 11:30p   39.7   39.7   39.6    49   22.1   1.0     E   0.17   2.0     E   39.7   38.6   38.6   34.4  30.371  0.00  0.00     0     0.00      0     0.0  0.00   0.0   0.176   0.000   69.1    46   47.4   67.3   8.65  .0754    0.000   212    5    100.0   10 
 2/17/20 11:40p   39.7   39.7   39.6    49   22.1   1.0     E   0.17   2.0     E   39.7   38.6   38.6   34.4  30.366  0.00  0.00     0     0.00      0     0.0  0.00   0.0   0.176   0.000   69.0    46   47.4   67.2   8.65  .0754    0.000   214    5    100.0   10 
 2/17/20 11:50p   39.1   39.7   39.1    48   21.0   1.0     E   0.17   3.0     E   39.1   38.0   38.0   33.8  30.365  0.00  0.00     0     0.00      0     0.0  0.00   0.0   0.180   0.000   68.9    46   47.3   67.1   8.65  .0754    0.000   212    5    100.0   10 
 2/18/20 12:00a   38.7   39.1   38.6    49   21.2   0.0     E   0.00   2.0     E   38.7   37.7   37.7   33.5  30.363  0.00  0.00     0     0.00      0     0.0  0.00   0.0   0.183   0.000   68.8    46   47.2   67.0   8.65  .0754    0.001   211    5    100.0   10 
 2/18/20 12:10a   38.8   38.9   38.7    49   21.3   1.0   ENE   0.17   3.0   ENE   38.8   37.8   37.8   33.6  30.362  0.00  0.00     0     0.00      0     0.0  0.00   0.0   0.182   0.000   68.7    46   47.1   66.9   8.65  .0754    0.000   210    5    100.0   10 
 2/18/20 12:20a   38.6   38.8   38.5    49   21.1   3.0     E   0.50   5.0     E   36.8   37.6   35.8   31.6  30.364  0.00  0.00     0     0.00      0     0.0  0.00   0.0   0.183   0.000   68.6    46   47.0   66.8   8.65  .0754    0.000   210    5    100.0   10 
 2/18/20 12:30a   39.3   39.3   38.6    49   21.7   1.0   ENE   0.17   3.0   ENE   39.3   38.2   38.2   34.0  30.364  0.00  0.00     0     0.00      0     0.0  0.00   0.0   0.178   0.000   68.6    46   47.0   66.8   8.65  .0754    0.000   212    5    100.0   10 
 2/18/20 12:40a   39.0   39.3   39.0    49   21.4   1.0   ENE   0.17   2.0   ENE   39.0   38.0   38.0   33.8  30.364  0.00  0.00     0     0.00      0     0.0  0.00   0.0   0.181   0.000   68.4    46   46.8   66.7   8.65  .0755    0.000   212    5    100.0   10 
 2/18/20 12:50a   39.0   39.1   38.9    49   21.4   1.0   ENE   0.17   7.0    SE   39.0   38.0   38.0   33.8  30.357  0.00  0.00     0     0.00      0     0.0  0.00   0.0   0.181   0.000   68.3    46   46.7   66.6   8.65  .0755    0.000   212    5    100.0   10 
 2/18/20  1:00a   39.0   39.0   38.8    49   21.4   3.0     E   0.50   7.0   ESE   37.2   38.0   36.2   32.0  30.357  0.00  0.00     0     0.00      0     0.0  0.00   0.0   0.181   0.000   68.2    46   46.6   66.5   8.65  .0755    0.001   213    5    100.0   10 
 2/18/20  1:10a   39.8   39.8   39.0    49   22.2   6.0   ESE   1.00  11.0     E   35.5   38.7   34.4   30.2  30.353  0.00  0.00     0     0.00      0     0.0  0.00   0.0   0.175   0.000   68.1    46   46.5   66.4   8.65  .0755    0.000   213    5    100.0   10 
 2/18/20  1:20a   40.2   40.2   39.8    48   22.1   7.0   ESE   1.17  12.0   ESE   35.3   39.1   34.2   30.1  30.352  0.00  0.00     0     0.00      0     0.0  0.00   0.0   0.172   0.000   68.0    45   45.9   66.2   8.49  .0755    0.000   213    5    100.0   10 
 2/18/20  1:30a   40.3   40.4   40.2    47   21.6   7.0     E   1.17  12.0   ESE   35.5   39.1   34.3   30.2  30.354  0.00  0.00     0     0.00      0     0.0  0.00   0.0   0.172   0.000   67.9    45   45.8   66.1   8.49  .0755    0.000   211    5    100.0   10 
 2/18/20  1:40a   40.4   40.5   40.3    47   21.7   9.0   ESE   1.50  15.0     E   34.6   39.2   33.4   29.6  30.351  0.00  0.00     0     0.00      0     0.0  0.00   0.0   0.171   0.000   67.8    45   45.7   66.0   8.49  .0755    0.000   212    5    100.0   10 
 2/18/20  1:50a   40.5   40.5   40.5    47   21.8   8.0   ESE   1.33  15.0     E   35.2   39.3   34.0   30.0  30.350  0.00  0.00     0     0.00      0     0.0  0.00   0.0   0.170   0.000   67.7    45   45.6   65.9   8.50  .0756    0.000   212    5    100.0   10 
 2/18/20  2:00a   40.4   40.5   40.4    47   21.7   8.0   ESE   1.33  12.0     E   35.1   39.2   33.9   29.9  30.347  0.00  0.00     0     0.00      0     0.0  0.00   0.0   0.171   0.000   67.6    45   45.5   65.8   8.50  .0756    0.003   209    5    100.0   10 
 2/18/20  2:10a   40.4   40.5   40.4    47   21.7   8.0   ESE   1.33  13.0   ESE   35.1   39.2   33.9   29.9  30.349  0.00  0.00     0     0.00      0     0.0  0.00   0.0   0.171   0.000   67.5    45   45.4   65.6   8.50  .0756    0.000   212    5    100.0   10 
 2/18/20  2:20a   40.3   40.4   40.3    47   21.6   8.0     E   1.33  12.0   ESE   35.0   39.1   33.8   29.8  30.347  0.00  0.00     0     0.00      0     0.0  0.00   0.0   0.172   0.000   67.4    45   45.3   65.5   8.50  .0756    0.000   213    5    100.0   10 
 2/18/20  2:30a   40.2   40.4   40.2    47   21.6   7.0   ESE   1.17  13.0   ESE   35.3   39.0   34.1   30.0  30.344  0.00  0.00     0     0.00      0     0.0  0.00   0.0   0.172   0.000   67.3    45   45.2   65.4   8.50  .0756    0.000   211    5    100.0   10 
 2/18/20  2:40a   39.8   40.2   39.8    46   20.7   7.0   ESE   1.17  12.0   ESE   34.9   38.6   33.7   29.5  30.340  0.00  0.00     0     0.00      0     0.0  0.00   0.0   0.175   0.000   67.2    45   45.1   65.3   8.51  .0756    0.000   212    5    100.0   10 
 2/18/20  2:50a   39.7   39.9   39.7    47   21.1   8.0   ESE   1.33  11.0     E   34.2   38.6   33.1   29.1  30.337  0.00  0.00     0     0.00      0     0.0  0.00   0.0   0.176   0.000   67.1    45   45.0   65.2   8.51  .0756    0.000   213    5    100.0   10 
 2/18/20  3:00a   39.8   39.9   39.7    47   21.2   8.0   ESE   1.33  14.0   ESE   34.3   38.6   33.1   29.1  30.337  0.00  0.00     0     0.00      0     0.0  0.00   0.0   0.175   0.000   67.0    45   44.9   65.1   8.51  .0756    0.003   213    5    100.0   10 
 2/18/20  3:10a   39.6   39.8   39.6    47   21.0   7.0   ESE   1.17  12.0     E   34.7   38.5   33.6   29.5  30.334  0.00  0.00     0     0.00      0     0.0  0.00   0.0   0.176   0.000   66.9    45   44.9   65.0   8.51  .0757    0.000   212    5    100.0   10 
 2/18/20  3:20a   39.4   39.6   39.4    47   20.8   7.0   ESE   1.17  12.0   ESE   34.4   38.3   33.3   29.1  30.332  0.00  0.00     0     0.00      0     0.0  0.00   0.0   0.178   0.000   66.8    45   44.8   64.9   8.51  .0757    0.000   213    5    100.0   10 
 2/18/20  3:30a   39.5   39.5   39.4    47   20.9   4.0   ESE   0.67   9.0     E   36.7   38.4   35.6   31.3  30.328  0.00  0.00     0     0.00      0     0.0  0.00   0.0   0.177   0.000   66.7    45   44.7   64.7   8.52  .0757    0.000   214    5    100.0   10 
 2/18/20  3:40a   39.5   39.5   39.5    47   20.9   4.0   ESE   0.67   8.0   ESE   36.7   38.4   35.6   31.3  30.328  0.00  0.00     0     0.00      0     0.0  0.00   0.0   0.177   0.000   66.6    45   44.6   64.6   8.52  .0757    0.000   212    5    100.0   10 
 2/18/20  3:50a   39.4   39.5   39.4    47   20.8   4.0   ESE   0.67   7.0   ESE   36.6   38.3   35.5   31.2  30.326  0.00  0.00     0     0.00      0     0.0  0.00   0.0   0.178   0.000   66.5    45   44.5   64.5   8.52  .0757    0.000   211    5    100.0   10 
 2/18/20  4:00a   39.2   39.4   39.2    47   20.6   4.0   ESE   0.67   8.0    SE   36.4   38.1   35.3   31.0  30.321  0.00  0.00     0     0.00      0     0.0  0.00   0.0   0.179   0.000   66.4    45   44.4   64.4   8.52  .0757    0.002   212    5    100.0   10 
 2/18/20  4:10a   39.0   39.2   39.0    47   20.5   5.0   ESE   0.83  10.0    SE   35.3   37.9   34.2   29.9  30.321  0.00  0.00     0     0.00      0     0.0  0.00   0.0   0.181   0.000   66.4    45   44.4   64.4   8.52  .0757    0.000   210    5    100.0   10 
 2/18/20  4:20a   38.8   39.0   38.8    47   20.3   5.0   ESE   0.83   9.0   ESE   35.1   37.7   34.0   29.7  30.319  0.00  0.00     0     0.00      0     0.0  0.00   0.0   0.182   0.000   66.2    45   44.2   64.1   8.53  .0757    0.000   210    5    100.0   10 
 2/18/20  4:30a   38.5   38.8   38.5    48   20.5   6.0   ESE   1.00  11.0   ESE   34.0   37.4   32.9   28.6  30.321  0.00  0.00     0     0.00      0     0.0  0.00   0.0   0.184   0.000   66.2    45   44.2   64.1   8.53  .0757    0.000   213    5    100.0   10 
 2/18/20  4:40a   38.2   38.5   38.2    48   20.2   5.0   ESE   0.83   9.0    SE   34.4   37.2   33.4   29.1  30.319  0.00  0.00     0     0.00      0     0.0  0.00   0.0   0.186   0.000   66.1    45   44.1   64.0   8.53  .0758    0.000   213    5    100.0   10 
 2/18/20  4:50a   37.9   38.2   37.8    48   19.9   4.0   ESE   0.67   8.0     E   34.9   36.9   33.9   29.6  30.321  0.00  0.00     0     0.00      0     0.0  0.00   0.0   0.188   0.000   66.0    45   44.0   63.9   8.53  .0758    0.000   212    5    100.0   10 
 2/18/20  5:00a   37.9   37.9   37.8    48   19.9   4.0   ESE   0.67   8.0     E   34.9   36.9   33.9   29.6  30.322  0.00  0.00     0     0.00      0     0.0  0.00   0.0   0.188   0.000   65.9    45   43.9   63.8   8.53  .0758    0.002   211    5    100.0   10 
 2/18/20  5:10a   37.8   37.9   37.8    48   19.8   5.0   ESE   0.83   8.0    SE   33.9   36.8   32.9   28.6  30.319  0.00  0.00     0     0.00      0     0.0  0.00   0.0   0.189   0.000   65.8    45   43.9   63.7   8.53  .0758    0.000   212    5    100.0   10 
 2/18/20  5:20a   37.7   37.9   37.7    49   20.2   5.0   ESE   0.83  10.0   ESE   33.8   36.7   32.8   28.5  30.319  0.00  0.00     0     0.00      0     0.0  0.00   0.0   0.190   0.000   65.7    45   43.8   63.6   8.54  .0758    0.000   213    5    100.0   10 
Email: AdamSPAM@StormwatchersRetreat.com (To send me email remove the word 'SPAM' from my email address.)